sensor_id;sensor_type;location;lat;lon;timestamp;P1;durP1;ratioP1;P2;durP2;ratioP2
10303;SDS011;5197;48.152;8.590;2023-10-19T00:00:41;7.70;;;7.00;;
10303;SDS011;5197;48.152;8.590;2023-10-19T00:03:11;8.27;;;7.20;;
10303;SDS011;5197;48.152;8.590;2023-10-19T00:05:39;7.00;;;6.37;;
10303;SDS011;5197;48.152;8.590;2023-10-19T00:08:06;8.20;;;7.00;;
10303;SDS011;5197;48.152;8.590;2023-10-19T00:10:52;7.43;;;6.37;;
10303;SDS011;5197;48.152;8.590;2023-10-19T00:13:34;8.10;;;6.70;;
10303;SDS011;5197;48.152;8.590;2023-10-19T00:16:02;7.37;;;6.43;;
10303;SDS011;5197;48.152;8.590;2023-10-19T00:18:38;7.77;;;6.20;;
10303;SDS011;5197;48.152;8.590;2023-10-19T00:21:09;8.17;;;6.43;;
10303;SDS011;5197;48.152;8.590;2023-10-19T00:23:46;6.53;;;5.90;;
10303;SDS011;5197;48.152;8.590;2023-10-19T00:26:14;7.13;;;6.30;;
10303;SDS011;5197;48.152;8.590;2023-10-19T00:28:43;7.13;;;6.17;;
10303;SDS011;5197;48.152;8.590;2023-10-19T00:31:12;8.60;;;6.13;;
10303;SDS011;5197;48.152;8.590;2023-10-19T00:33:40;7.23;;;5.93;;
10303;SDS011;5197;48.152;8.590;2023-10-19T00:36:07;7.13;;;6.43;;
10303;SDS011;5197;48.152;8.590;2023-10-19T00:38:36;8.17;;;6.47;;
10303;SDS011;5197;48.152;8.590;2023-10-19T00:41:04;7.40;;;6.70;;
10303;SDS011;5197;48.152;8.590;2023-10-19T00:43:38;7.87;;;6.43;;
10303;SDS011;5197;48.152;8.590;2023-10-19T00:46:12;6.87;;;6.17;;
10303;SDS011;5197;48.152;8.590;2023-10-19T00:49:11;10.00;;;6.80;;
10303;SDS011;5197;48.152;8.590;2023-10-19T00:51:43;6.73;;;6.13;;
10303;SDS011;5197;48.152;8.590;2023-10-19T00:54:32;8.43;;;6.60;;
10303;SDS011;5197;48.152;8.590;2023-10-19T00:57:20;10.43;;;6.67;;
10303;SDS011;5197;48.152;8.590;2023-10-19T00:59:47;7.73;;;6.93;;
10303;SDS011;5197;48.152;8.590;2023-10-19T01:02:20;8.07;;;6.93;;
10303;SDS011;5197;48.152;8.590;2023-10-19T01:04:51;7.37;;;6.67;;
10303;SDS011;5197;48.152;8.590;2023-10-19T01:07:23;7.73;;;6.97;;
10303;SDS011;5197;48.152;8.590;2023-10-19T01:09:57;9.77;;;7.00;;
10303;SDS011;5197;48.152;8.590;2023-10-19T01:12:26;10.00;;;6.93;;
10303;SDS011;5197;48.152;8.590;2023-10-19T01:15:06;8.63;;;6.97;;
10303;SDS011;5197;48.152;8.590;2023-10-19T01:17:34;8.27;;;7.03;;
10303;SDS011;5197;48.152;8.590;2023-10-19T01:20:08;8.77;;;7.30;;
10303;SDS011;5197;48.152;8.590;2023-10-19T01:23:03;11.80;;;7.47;;
10303;SDS011;5197;48.152;8.590;2023-10-19T01:28:42;8.87;;;7.37;;
10303;SDS011;5197;48.152;8.590;2023-10-19T01:31:19;7.83;;;7.03;;
10303;SDS011;5197;48.152;8.590;2023-10-19T01:33:49;10.10;;;7.27;;
10303;SDS011;5197;48.152;8.590;2023-10-19T01:36:16;7.90;;;7.10;;
10303;SDS011;5197;48.152;8.590;2023-10-19T01:38:51;8.70;;;7.03;;
10303;SDS011;5197;48.152;8.590;2023-10-19T01:41:22;8.17;;;6.77;;
10303;SDS011;5197;48.152;8.590;2023-10-19T01:43:51;9.77;;;7.67;;
10303;SDS011;5197;48.152;8.590;2023-10-19T01:46:28;8.70;;;7.53;;
10303;SDS011;5197;48.152;8.590;2023-10-19T01:49:00;8.93;;;7.20;;
10303;SDS011;5197;48.152;8.590;2023-10-19T01:51:30;9.63;;;7.87;;
10303;SDS011;5197;48.152;8.590;2023-10-19T01:54:05;8.80;;;7.27;;
10303;SDS011;5197;48.152;8.590;2023-10-19T01:56:34;8.97;;;7.60;;
10303;SDS011;5197;48.152;8.590;2023-10-19T01:59:02;8.10;;;7.30;;
10303;SDS011;5197;48.152;8.590;2023-10-19T02:01:35;8.57;;;6.87;;
10303;SDS011;5197;48.152;8.590;2023-10-19T02:04:04;8.40;;;7.53;;
10303;SDS011;5197;48.152;8.590;2023-10-19T02:06:33;8.13;;;7.00;;
10303;SDS011;5197;48.152;8.590;2023-10-19T02:09:02;10.47;;;7.37;;
10303;SDS011;5197;48.152;8.590;2023-10-19T02:11:44;7.80;;;6.37;;
10303;SDS011;5197;48.152;8.590;2023-10-19T02:14:15;7.47;;;6.50;;
10303;SDS011;5197;48.152;8.590;2023-10-19T02:16:48;11.20;;;6.80;;
10303;SDS011;5197;48.152;8.590;2023-10-19T02:19:20;12.90;;;7.13;;
10303;SDS011;5197;48.152;8.590;2023-10-19T02:21:58;10.43;;;6.93;;
10303;SDS011;5197;48.152;8.590;2023-10-19T02:24:26;8.97;;;7.00;;
10303;SDS011;5197;48.152;8.590;2023-10-19T02:26:54;13.20;;;6.90;;
10303;SDS011;5197;48.152;8.590;2023-10-19T02:29:23;8.67;;;6.87;;
10303;SDS011;5197;48.152;8.590;2023-10-19T02:31:51;7.87;;;7.07;;
10303;SDS011;5197;48.152;8.590;2023-10-19T02:34:20;8.17;;;7.37;;
10303;SDS011;5197;48.152;8.590;2023-10-19T02:36:47;9.17;;;7.30;;
10303;SDS011;5197;48.152;8.590;2023-10-19T02:39:14;9.97;;;7.27;;
10303;SDS011;5197;48.152;8.590;2023-10-19T02:41:44;9.67;;;7.43;;
10303;SDS011;5197;48.152;8.590;2023-10-19T02:44:14;10.03;;;7.70;;
10303;SDS011;5197;48.152;8.590;2023-10-19T02:46:43;8.30;;;7.20;;
10303;SDS011;5197;48.152;8.590;2023-10-19T02:49:14;9.10;;;8.17;;
10303;SDS011;5197;48.152;8.590;2023-10-19T02:51:45;9.47;;;7.37;;
10303;SDS011;5197;48.152;8.590;2023-10-19T02:54:14;10.43;;;7.83;;
10303;SDS011;5197;48.152;8.590;2023-10-19T02:56:53;9.57;;;8.50;;
10303;SDS011;5197;48.152;8.590;2023-10-19T02:59:23;11.40;;;8.57;;
10303;SDS011;5197;48.152;8.590;2023-10-19T03:01:52;11.93;;;8.30;;
10303;SDS011;5197;48.152;8.590;2023-10-19T03:04:28;9.83;;;7.87;;
10303;SDS011;5197;48.152;8.590;2023-10-19T03:06:56;10.27;;;8.27;;
10303;SDS011;5197;48.152;8.590;2023-10-19T03:09:23;9.90;;;8.33;;
10303;SDS011;5197;48.152;8.590;2023-10-19T03:11:54;11.37;;;8.43;;
10303;SDS011;5197;48.152;8.590;2023-10-19T03:14:26;9.17;;;8.23;;
10303;SDS011;5197;48.152;8.590;2023-10-19T03:16:53;8.53;;;7.60;;
10303;SDS011;5197;48.152;8.590;2023-10-19T03:19:21;11.37;;;8.57;;
10303;SDS011;5197;48.152;8.590;2023-10-19T03:21:48;9.70;;;8.53;;
10303;SDS011;5197;48.152;8.590;2023-10-19T03:24:16;8.90;;;7.93;;
10303;SDS011;5197;48.152;8.590;2023-10-19T03:27:02;8.87;;;7.97;;
10303;SDS011;5197;48.152;8.590;2023-10-19T03:29:43;9.77;;;8.10;;
10303;SDS011;5197;48.152;8.590;2023-10-19T03:32:29;8.53;;;7.73;;
10303;SDS011;5197;48.152;8.590;2023-10-19T03:34:59;10.67;;;8.67;;
10303;SDS011;5197;48.152;8.590;2023-10-19T03:37:27;9.27;;;7.87;;
10303;SDS011;5197;48.152;8.590;2023-10-19T03:39:58;12.43;;;8.93;;
10303;SDS011;5197;48.152;8.590;2023-10-19T03:42:25;12.27;;;9.57;;
10303;SDS011;5197;48.152;8.590;2023-10-19T03:44:54;12.73;;;9.93;;
10303;SDS011;5197;48.152;8.590;2023-10-19T03:47:23;12.90;;;10.03;;
10303;SDS011;5197;48.152;8.590;2023-10-19T03:50:00;12.87;;;10.00;;
10303;SDS011;5197;48.152;8.590;2023-10-19T03:52:36;11.30;;;9.17;;
10303;SDS011;5197;48.152;8.590;2023-10-19T03:55:06;12.40;;;10.20;;
10303;SDS011;5197;48.152;8.590;2023-10-19T03:57:46;12.17;;;10.03;;
10303;SDS011;5197;48.152;8.590;2023-10-19T04:00:16;13.53;;;9.73;;
10303;SDS011;5197;48.152;8.590;2023-10-19T04:02:51;12.83;;;10.00;;
10303;SDS011;5197;48.152;8.590;2023-10-19T04:05:22;11.93;;;9.87;;
10303;SDS011;5197;48.152;8.590;2023-10-19T04:07:49;13.43;;;9.73;;
10303;SDS011;5197;48.152;8.590;2023-10-19T04:10:21;12.90;;;9.93;;
10303;SDS011;5197;48.152;8.590;2023-10-19T04:13:01;11.57;;;9.27;;
10303;SDS011;5197;48.152;8.590;2023-10-19T04:15:29;11.30;;;9.90;;
10303;SDS011;5197;48.152;8.590;2023-10-19T04:18:00;12.97;;;10.03;;
10303;SDS011;5197;48.152;8.590;2023-10-19T04:20:27;11.20;;;10.00;;
10303;SDS011;5197;48.152;8.590;2023-10-19T04:23:13;12.03;;;10.10;;
10303;SDS011;5197;48.152;8.590;2023-10-19T04:25:42;11.50;;;9.80;;
10303;SDS011;5197;48.152;8.590;2023-10-19T04:28:13;11.70;;;10.30;;
10303;SDS011;5197;48.152;8.590;2023-10-19T04:30:40;12.87;;;11.00;;
10303;SDS011;5197;48.152;8.590;2023-10-19T04:33:07;14.17;;;11.20;;
10303;SDS011;5197;48.152;8.590;2023-10-19T04:35:36;12.03;;;10.63;;
10303;SDS011;5197;48.152;8.590;2023-10-19T04:38:04;14.60;;;12.17;;
10303;SDS011;5197;48.152;8.590;2023-10-19T04:40:34;13.10;;;11.00;;
10303;SDS011;5197;48.152;8.590;2023-10-19T04:43:02;12.30;;;10.33;;
10303;SDS011;5197;48.152;8.590;2023-10-19T04:45:32;12.00;;;10.63;;
10303;SDS011;5197;48.152;8.590;2023-10-19T04:47:59;13.27;;;10.60;;
10303;SDS011;5197;48.152;8.590;2023-10-19T04:50:26;13.50;;;10.87;;
10303;SDS011;5197;48.152;8.590;2023-10-19T04:52:53;13.07;;;11.30;;
10303;SDS011;5197;48.152;8.590;2023-10-19T04:55:20;11.93;;;10.20;;
10303;SDS011;5197;48.152;8.590;2023-10-19T04:57:47;13.43;;;10.03;;
10303;SDS011;5197;48.152;8.590;2023-10-19T05:00:14;14.00;;;11.03;;
10303;SDS011;5197;48.152;8.590;2023-10-19T05:02:41;12.50;;;10.60;;
10303;SDS011;5197;48.152;8.590;2023-10-19T05:05:09;13.70;;;10.43;;
10303;SDS011;5197;48.152;8.590;2023-10-19T05:07:37;15.30;;;11.07;;
10303;SDS011;5197;48.152;8.590;2023-10-19T05:10:05;13.70;;;11.00;;
10303;SDS011;5197;48.152;8.590;2023-10-19T05:12:32;12.40;;;11.20;;
10303;SDS011;5197;48.152;8.590;2023-10-19T05:15:01;12.17;;;10.87;;
10303;SDS011;5197;48.152;8.590;2023-10-19T05:17:28;13.83;;;11.17;;
10303;SDS011;5197;48.152;8.590;2023-10-19T05:19:55;16.63;;;12.33;;
10303;SDS011;5197;48.152;8.590;2023-10-19T05:22:23;14.20;;;12.80;;
10303;SDS011;5197;48.152;8.590;2023-10-19T05:24:51;16.20;;;12.80;;
10303;SDS011;5197;48.152;8.590;2023-10-19T05:27:19;14.47;;;12.90;;
10303;SDS011;5197;48.152;8.590;2023-10-19T05:29:46;14.63;;;12.53;;
10303;SDS011;5197;48.152;8.590;2023-10-19T05:32:13;14.77;;;11.87;;
10303;SDS011;5197;48.152;8.590;2023-10-19T05:34:41;22.67;;;15.53;;
10303;SDS011;5197;48.152;8.590;2023-10-19T05:37:08;25.30;;;19.83;;
10303;SDS011;5197;48.152;8.590;2023-10-19T05:39:36;20.00;;;15.60;;
10303;SDS011;5197;48.152;8.590;2023-10-19T05:42:03;20.43;;;13.97;;
10303;SDS011;5197;48.152;8.590;2023-10-19T05:44:32;17.13;;;14.70;;
10303;SDS011;5197;48.152;8.590;2023-10-19T05:46:59;19.00;;;14.93;;
10303;SDS011;5197;48.152;8.590;2023-10-19T05:49:27;21.50;;;15.40;;
10303;SDS011;5197;48.152;8.590;2023-10-19T05:51:57;24.20;;;15.97;;
10303;SDS011;5197;48.152;8.590;2023-10-19T05:54:25;19.93;;;15.17;;
10303;SDS011;5197;48.152;8.590;2023-10-19T05:56:53;21.37;;;15.73;;
10303;SDS011;5197;48.152;8.590;2023-10-19T05:59:20;23.37;;;16.37;;
10303;SDS011;5197;48.152;8.590;2023-10-19T06:01:47;21.90;;;16.57;;
10303;SDS011;5197;48.152;8.590;2023-10-19T06:04:15;23.33;;;16.83;;
10303;SDS011;5197;48.152;8.590;2023-10-19T06:06:57;26.43;;;17.97;;
10303;SDS011;5197;48.152;8.590;2023-10-19T06:09:24;23.37;;;17.40;;
10303;SDS011;5197;48.152;8.590;2023-10-19T06:11:55;23.30;;;17.73;;
10303;SDS011;5197;48.152;8.590;2023-10-19T06:14:22;24.70;;;17.40;;
10303;SDS011;5197;48.152;8.590;2023-10-19T06:16:49;21.10;;;16.70;;
10303;SDS011;5197;48.152;8.590;2023-10-19T06:19:16;21.63;;;16.33;;
10303;SDS011;5197;48.152;8.590;2023-10-19T06:21:44;21.80;;;16.20;;
10303;SDS011;5197;48.152;8.590;2023-10-19T06:24:11;22.67;;;17.30;;
10303;SDS011;5197;48.152;8.590;2023-10-19T06:26:42;24.33;;;16.70;;
10303;SDS011;5197;48.152;8.590;2023-10-19T06:29:09;22.87;;;17.87;;
10303;SDS011;5197;48.152;8.590;2023-10-19T06:31:36;24.23;;;17.53;;
10303;SDS011;5197;48.152;8.590;2023-10-19T06:34:04;24.27;;;17.70;;
10303;SDS011;5197;48.152;8.590;2023-10-19T06:36:30;22.97;;;17.00;;
10303;SDS011;5197;48.152;8.590;2023-10-19T06:38:57;23.07;;;16.80;;
10303;SDS011;5197;48.152;8.590;2023-10-19T06:41:24;23.40;;;17.80;;
10303;SDS011;5197;48.152;8.590;2023-10-19T06:43:52;20.80;;;16.73;;
10303;SDS011;5197;48.152;8.590;2023-10-19T06:46:19;24.83;;;16.93;;
10303;SDS011;5197;48.152;8.590;2023-10-19T06:48:46;23.97;;;17.03;;
10303;SDS011;5197;48.152;8.590;2023-10-19T06:51:13;24.53;;;16.73;;
10303;SDS011;5197;48.152;8.590;2023-10-19T06:53:42;21.23;;;16.37;;
10303;SDS011;5197;48.152;8.590;2023-10-19T06:56:09;20.97;;;16.10;;
10303;SDS011;5197;48.152;8.590;2023-10-19T06:58:37;24.57;;;16.10;;
10303;SDS011;5197;48.152;8.590;2023-10-19T07:01:07;22.90;;;15.90;;
10303;SDS011;5197;48.152;8.590;2023-10-19T07:03:37;20.93;;;15.77;;
10303;SDS011;5197;48.152;8.590;2023-10-19T07:06:04;21.10;;;15.10;;
10303;SDS011;5197;48.152;8.590;2023-10-19T07:08:38;19.43;;;14.53;;
10303;SDS011;5197;48.152;8.590;2023-10-19T07:11:05;19.83;;;15.70;;
10303;SDS011;5197;48.152;8.590;2023-10-19T07:13:32;20.10;;;14.40;;
10303;SDS011;5197;48.152;8.590;2023-10-19T07:16:00;20.33;;;15.10;;
10303;SDS011;5197;48.152;8.590;2023-10-19T07:18:29;20.80;;;15.23;;
10303;SDS011;5197;48.152;8.590;2023-10-19T07:20:56;21.87;;;14.67;;
10303;SDS011;5197;48.152;8.590;2023-10-19T07:23:30;20.57;;;14.30;;
10303;SDS011;5197;48.152;8.590;2023-10-19T07:25:57;19.40;;;13.47;;
10303;SDS011;5197;48.152;8.590;2023-10-19T07:28:27;15.23;;;12.80;;
10303;SDS011;5197;48.152;8.590;2023-10-19T07:30:55;17.13;;;13.00;;
10303;SDS011;5197;48.152;8.590;2023-10-19T07:33:23;14.47;;;12.27;;
10303;SDS011;5197;48.152;8.590;2023-10-19T07:35:50;17.33;;;12.10;;
10303;SDS011;5197;48.152;8.590;2023-10-19T07:38:22;16.50;;;12.53;;
10303;SDS011;5197;48.152;8.590;2023-10-19T07:40:50;14.93;;;11.57;;
10303;SDS011;5197;48.152;8.590;2023-10-19T07:43:21;17.77;;;12.20;;
10303;SDS011;5197;48.152;8.590;2023-10-19T07:45:50;15.93;;;12.03;;
10303;SDS011;5197;48.152;8.590;2023-10-19T07:48:19;15.13;;;12.50;;
10303;SDS011;5197;48.152;8.590;2023-10-19T07:50:47;14.73;;;11.80;;
10303;SDS011;5197;48.152;8.590;2023-10-19T07:53:14;21.27;;;12.00;;
10303;SDS011;5197;48.152;8.590;2023-10-19T07:55:41;13.20;;;11.20;;
10303;SDS011;5197;48.152;8.590;2023-10-19T07:58:09;14.53;;;11.80;;
10303;SDS011;5197;48.152;8.590;2023-10-19T08:00:36;15.30;;;11.60;;
10303;SDS011;5197;48.152;8.590;2023-10-19T08:03:05;13.17;;;11.37;;
10303;SDS011;5197;48.152;8.590;2023-10-19T08:05:39;13.53;;;11.33;;
10303;SDS011;5197;48.152;8.590;2023-10-19T08:08:06;16.30;;;11.60;;
10303;SDS011;5197;48.152;8.590;2023-10-19T08:10:33;13.27;;;11.40;;
10303;SDS011;5197;48.152;8.590;2023-10-19T08:13:01;16.60;;;11.80;;
10303;SDS011;5197;48.152;8.590;2023-10-19T08:15:28;11.40;;;9.63;;
10303;SDS011;5197;48.152;8.590;2023-10-19T08:17:57;14.40;;;10.40;;
10303;SDS011;5197;48.152;8.590;2023-10-19T08:20:24;10.70;;;9.60;;
10303;SDS011;5197;48.152;8.590;2023-10-19T08:22:57;10.77;;;9.67;;
10303;SDS011;5197;48.152;8.590;2023-10-19T08:25:28;11.13;;;8.67;;
10303;SDS011;5197;48.152;8.590;2023-10-19T08:28:13;11.13;;;8.80;;
10303;SDS011;5197;48.152;8.590;2023-10-19T08:30:42;8.77;;;7.87;;
10303;SDS011;5197;48.152;8.590;2023-10-19T08:33:11;9.23;;;7.63;;
10303;SDS011;5197;48.152;8.590;2023-10-19T08:35:40;8.97;;;7.97;;
10303;SDS011;5197;48.152;8.590;2023-10-19T08:38:07;9.53;;;7.60;;
10303;SDS011;5197;48.152;8.590;2023-10-19T08:40:38;8.00;;;7.20;;
10303;SDS011;5197;48.152;8.590;2023-10-19T08:43:06;10.47;;;7.27;;
10303;SDS011;5197;48.152;8.590;2023-10-19T08:45:39;8.97;;;7.50;;
10303;SDS011;5197;48.152;8.590;2023-10-19T08:48:08;7.83;;;6.77;;
10303;SDS011;5197;48.152;8.590;2023-10-19T08:50:35;11.27;;;7.80;;
10303;SDS011;5197;48.152;8.590;2023-10-19T08:53:04;8.23;;;7.43;;
10303;SDS011;5197;48.152;8.590;2023-10-19T08:55:34;8.90;;;7.30;;
10303;SDS011;5197;48.152;8.590;2023-10-19T08:58:15;8.10;;;7.30;;
10303;SDS011;5197;48.152;8.590;2023-10-19T09:00:48;8.07;;;7.27;;
10303;SDS011;5197;48.152;8.590;2023-10-19T09:03:21;9.67;;;8.00;;
10303;SDS011;5197;48.152;8.590;2023-10-19T09:05:48;9.97;;;7.63;;
10303;SDS011;5197;48.152;8.590;2023-10-19T09:08:16;8.83;;;8.00;;
10303;SDS011;5197;48.152;8.590;2023-10-19T09:10:45;8.60;;;7.17;;
10303;SDS011;5197;48.152;8.590;2023-10-19T09:13:13;11.33;;;7.77;;
10303;SDS011;5197;48.152;8.590;2023-10-19T09:15:44;9.73;;;7.80;;
10303;SDS011;5197;48.152;8.590;2023-10-19T09:20:43;9.90;;;8.20;;
10303;SDS011;5197;48.152;8.590;2023-10-19T09:23:22;7.70;;;6.90;;
10303;SDS011;5197;48.152;8.590;2023-10-19T09:25:52;7.53;;;6.73;;
10303;SDS011;5197;48.152;8.590;2023-10-19T09:28:20;11.07;;;7.43;;
10303;SDS011;5197;48.152;8.590;2023-10-19T09:30:48;8.33;;;7.30;;
10303;SDS011;5197;48.152;8.590;2023-10-19T09:33:16;9.37;;;7.97;;
10303;SDS011;5197;48.152;8.590;2023-10-19T09:35:48;8.17;;;7.37;;
10303;SDS011;5197;48.152;8.590;2023-10-19T09:38:15;9.07;;;8.13;;
10303;SDS011;5197;48.152;8.590;2023-10-19T09:40:42;10.60;;;9.50;;
10303;SDS011;5197;48.152;8.590;2023-10-19T09:43:12;10.17;;;9.07;;
10303;SDS011;5197;48.152;8.590;2023-10-19T09:45:45;14.33;;;9.60;;
10303;SDS011;5197;48.152;8.590;2023-10-19T09:48:18;10.03;;;9.00;;
10303;SDS011;5197;48.152;8.590;2023-10-19T09:50:49;11.53;;;9.07;;
10303;SDS011;5197;48.152;8.590;2023-10-19T09:53:28;10.40;;;9.30;;
10303;SDS011;5197;48.152;8.590;2023-10-19T09:55:59;10.83;;;9.37;;
10303;SDS011;5197;48.152;8.590;2023-10-19T09:58:46;11.87;;;8.90;;
10303;SDS011;5197;48.152;8.590;2023-10-19T10:01:16;10.33;;;8.60;;
10303;SDS011;5197;48.152;8.590;2023-10-19T10:03:45;8.73;;;7.83;;
10303;SDS011;5197;48.152;8.590;2023-10-19T10:06:27;12.70;;;7.93;;
10303;SDS011;5197;48.152;8.590;2023-10-19T10:08:56;8.97;;;7.93;;
10303;SDS011;5197;48.152;8.590;2023-10-19T10:11:26;9.13;;;7.40;;
10303;SDS011;5197;48.152;8.590;2023-10-19T10:13:55;9.63;;;7.53;;
10303;SDS011;5197;48.152;8.590;2023-10-19T10:16:24;12.83;;;9.97;;
10303;SDS011;5197;48.152;8.590;2023-10-19T10:18:59;11.13;;;9.00;;
10303;SDS011;5197;48.152;8.590;2023-10-19T10:21:27;10.83;;;8.10;;
10303;SDS011;5197;48.152;8.590;2023-10-19T10:24:00;12.47;;;10.03;;
10303;SDS011;5197;48.152;8.590;2023-10-19T10:26:30;17.00;;;12.23;;
10303;SDS011;5197;48.152;8.590;2023-10-19T10:29:21;17.67;;;14.37;;
10303;SDS011;5197;48.152;8.590;2023-10-19T10:31:53;18.13;;;13.40;;
10303;SDS011;5197;48.152;8.590;2023-10-19T10:34:41;15.37;;;11.63;;
10303;SDS011;5197;48.152;8.590;2023-10-19T10:37:10;11.83;;;9.70;;
10303;SDS011;5197;48.152;8.590;2023-10-19T10:39:38;16.70;;;11.67;;
10303;SDS011;5197;48.152;8.590;2023-10-19T10:42:10;11.37;;;9.47;;
10303;SDS011;5197;48.152;8.590;2023-10-19T10:44:47;10.77;;;9.30;;
10303;SDS011;5197;48.152;8.590;2023-10-19T10:47:19;9.33;;;8.33;;
10303;SDS011;5197;48.152;8.590;2023-10-19T10:49:52;9.33;;;7.67;;
10303;SDS011;5197;48.152;8.590;2023-10-19T10:52:27;6.67;;;6.00;;
10303;SDS011;5197;48.152;8.590;2023-10-19T10:55:02;7.10;;;6.40;;
10303;SDS011;5197;48.152;8.590;2023-10-19T10:57:40;7.77;;;6.97;;
10303;SDS011;5197;48.152;8.590;2023-10-19T11:00:12;11.80;;;6.80;;
10303;SDS011;5197;48.152;8.590;2023-10-19T11:02:45;9.37;;;7.27;;
10303;SDS011;5197;48.152;8.590;2023-10-19T11:05:13;9.10;;;6.67;;
10303;SDS011;5197;48.152;8.590;2023-10-19T11:07:41;10.53;;;6.87;;
10303;SDS011;5197;48.152;8.590;2023-10-19T11:10:29;8.47;;;6.63;;
10303;SDS011;5197;48.152;8.590;2023-10-19T11:13:01;11.83;;;6.80;;
10303;SDS011;5197;48.152;8.590;2023-10-19T11:15:33;6.77;;;6.07;;
10303;SDS011;5197;48.152;8.590;2023-10-19T11:18:00;6.83;;;6.10;;
10303;SDS011;5197;48.152;8.590;2023-10-19T11:20:28;7.20;;;6.17;;
10303;SDS011;5197;48.152;8.590;2023-10-19T11:22:56;11.23;;;6.47;;
10303;SDS011;5197;48.152;8.590;2023-10-19T11:25:27;9.67;;;5.80;;
10303;SDS011;5197;48.152;8.590;2023-10-19T11:27:56;6.53;;;5.43;;
10303;SDS011;5197;48.152;8.590;2023-10-19T11:30:28;7.30;;;6.40;;
10303;SDS011;5197;48.152;8.590;2023-10-19T11:32:58;6.97;;;6.23;;
10303;SDS011;5197;48.152;8.590;2023-10-19T11:35:29;6.57;;;5.93;;
10303;SDS011;5197;48.152;8.590;2023-10-19T11:37:58;6.13;;;5.60;;
10303;SDS011;5197;48.152;8.590;2023-10-19T11:40:26;7.17;;;6.47;;
10303;SDS011;5197;48.152;8.590;2023-10-19T11:42:54;9.00;;;7.70;;
10303;SDS011;5197;48.152;8.590;2023-10-19T11:45:26;6.67;;;5.97;;
10303;SDS011;5197;48.152;8.590;2023-10-19T11:47:55;5.60;;;4.80;;
10303;SDS011;5197;48.152;8.590;2023-10-19T11:50:23;6.10;;;5.50;;
10303;SDS011;5197;48.152;8.590;2023-10-19T11:52:51;6.90;;;5.10;;
10303;SDS011;5197;48.152;8.590;2023-10-19T11:55:19;5.90;;;5.10;;
10303;SDS011;5197;48.152;8.590;2023-10-19T11:57:47;5.87;;;5.37;;
10303;SDS011;5197;48.152;8.590;2023-10-19T12:00:14;5.87;;;5.30;;
10303;SDS011;5197;48.152;8.590;2023-10-19T12:02:48;6.47;;;5.90;;
10303;SDS011;5197;48.152;8.590;2023-10-19T12:05:16;10.40;;;5.60;;
10303;SDS011;5197;48.152;8.590;2023-10-19T12:07:43;9.60;;;6.00;;
10303;SDS011;5197;48.152;8.590;2023-10-19T12:10:11;7.07;;;6.33;;
10303;SDS011;5197;48.152;8.590;2023-10-19T12:12:39;13.23;;;9.13;;
10303;SDS011;5197;48.152;8.590;2023-10-19T12:15:08;7.77;;;6.00;;
10303;SDS011;5197;48.152;8.590;2023-10-19T12:17:38;7.90;;;5.47;;
10303;SDS011;5197;48.152;8.590;2023-10-19T12:20:05;5.97;;;4.67;;
10303;SDS011;5197;48.152;8.590;2023-10-19T12:22:33;8.50;;;7.07;;
10303;SDS011;5197;48.152;8.590;2023-10-19T12:25:05;7.77;;;6.10;;
10303;SDS011;5197;48.152;8.590;2023-10-19T12:27:33;4.87;;;4.40;;
10303;SDS011;5197;48.152;8.590;2023-10-19T12:30:00;5.77;;;5.13;;
10303;SDS011;5197;48.152;8.590;2023-10-19T12:32:28;8.30;;;5.47;;
10303;SDS011;5197;48.152;8.590;2023-10-19T12:34:55;21.33;;;14.17;;
10303;SDS011;5197;48.152;8.590;2023-10-19T12:37:24;10.10;;;8.10;;
10303;SDS011;5197;48.152;8.590;2023-10-19T12:39:51;6.30;;;5.70;;
10303;SDS011;5197;48.152;8.590;2023-10-19T12:42:18;17.47;;;9.87;;
10303;SDS011;5197;48.152;8.590;2023-10-19T12:44:45;19.37;;;14.80;;
10303;SDS011;5197;48.152;8.590;2023-10-19T12:47:13;14.07;;;12.50;;
10303;SDS011;5197;48.152;8.590;2023-10-19T12:49:41;19.80;;;15.37;;
10303;SDS011;5197;48.152;8.590;2023-10-19T12:52:09;12.83;;;10.80;;
10303;SDS011;5197;48.152;8.590;2023-10-19T12:54:37;37.50;;;28.43;;
10303;SDS011;5197;48.152;8.590;2023-10-19T12:57:04;27.83;;;19.33;;
10303;SDS011;5197;48.152;8.590;2023-10-19T12:59:35;18.57;;;14.63;;
10303;SDS011;5197;48.152;8.590;2023-10-19T13:02:05;10.87;;;8.87;;
10303;SDS011;5197;48.152;8.590;2023-10-19T13:04:35;8.37;;;6.27;;
10303;SDS011;5197;48.152;8.590;2023-10-19T13:07:03;7.43;;;6.57;;
10303;SDS011;5197;48.152;8.590;2023-10-19T13:09:32;7.80;;;7.00;;
10303;SDS011;5197;48.152;8.590;2023-10-19T13:12:02;9.17;;;6.53;;
10303;SDS011;5197;48.152;8.590;2023-10-19T13:14:33;9.70;;;5.50;;
10303;SDS011;5197;48.152;8.590;2023-10-19T13:17:00;8.33;;;6.87;;
10303;SDS011;5197;48.152;8.590;2023-10-19T13:19:27;6.43;;;5.30;;
10303;SDS011;5197;48.152;8.590;2023-10-19T13:21:54;7.30;;;4.67;;
10303;SDS011;5197;48.152;8.590;2023-10-19T13:24:24;5.47;;;4.90;;
10303;SDS011;5197;48.152;8.590;2023-10-19T13:26:52;7.53;;;4.93;;
10303;SDS011;5197;48.152;8.590;2023-10-19T13:29:20;8.33;;;5.83;;
10303;SDS011;5197;48.152;8.590;2023-10-19T13:31:49;9.17;;;5.83;;
10303;SDS011;5197;48.152;8.590;2023-10-19T13:34:16;6.10;;;5.30;;
10303;SDS011;5197;48.152;8.590;2023-10-19T13:36:43;6.57;;;5.60;;
10303;SDS011;5197;48.152;8.590;2023-10-19T13:39:12;5.47;;;4.97;;
10303;SDS011;5197;48.152;8.590;2023-10-19T13:41:43;7.20;;;5.57;;
10303;SDS011;5197;48.152;8.590;2023-10-19T13:44:10;9.87;;;6.40;;
10303;SDS011;5197;48.152;8.590;2023-10-19T13:46:38;6.40;;;5.57;;
10303;SDS011;5197;48.152;8.590;2023-10-19T13:49:05;8.13;;;5.70;;
10303;SDS011;5197;48.152;8.590;2023-10-19T13:51:32;6.33;;;5.33;;
10303;SDS011;5197;48.152;8.590;2023-10-19T13:53:59;7.07;;;5.87;;
10303;SDS011;5197;48.152;8.590;2023-10-19T13:56:26;6.70;;;5.93;;
10303;SDS011;5197;48.152;8.590;2023-10-19T13:58:53;5.30;;;4.80;;
10303;SDS011;5197;48.152;8.590;2023-10-19T14:01:21;8.17;;;5.23;;
10303;SDS011;5197;48.152;8.590;2023-10-19T14:04:05;7.23;;;6.23;;
10303;SDS011;5197;48.152;8.590;2023-10-19T14:06:32;6.90;;;6.23;;
10303;SDS011;5197;48.152;8.590;2023-10-19T14:08:59;9.33;;;6.20;;
10303;SDS011;5197;48.152;8.590;2023-10-19T14:11:26;11.73;;;8.80;;
10303;SDS011;5197;48.152;8.590;2023-10-19T14:13:53;14.23;;;9.97;;
10303;SDS011;5197;48.152;8.590;2023-10-19T14:16:20;9.60;;;8.00;;
10303;SDS011;5197;48.152;8.590;2023-10-19T14:18:49;7.37;;;6.43;;
10303;SDS011;5197;48.152;8.590;2023-10-19T14:21:17;5.03;;;4.60;;
10303;SDS011;5197;48.152;8.590;2023-10-19T14:23:46;6.20;;;4.70;;
10303;SDS011;5197;48.152;8.590;2023-10-19T14:26:14;4.70;;;4.10;;
10303;SDS011;5197;48.152;8.590;2023-10-19T14:28:42;5.80;;;4.60;;
10303;SDS011;5197;48.152;8.590;2023-10-19T14:31:09;5.50;;;4.20;;
10303;SDS011;5197;48.152;8.590;2023-10-19T14:33:37;5.37;;;4.07;;
10303;SDS011;5197;48.152;8.590;2023-10-19T14:36:05;4.60;;;4.20;;
10303;SDS011;5197;48.152;8.590;2023-10-19T14:38:32;7.23;;;4.30;;
10303;SDS011;5197;48.152;8.590;2023-10-19T14:41:00;4.37;;;3.97;;
10303;SDS011;5197;48.152;8.590;2023-10-19T14:43:26;7.20;;;4.30;;
10303;SDS011;5197;48.152;8.590;2023-10-19T14:45:56;4.33;;;3.63;;
10303;SDS011;5197;48.152;8.590;2023-10-19T14:48:25;3.93;;;2.67;;
10303;SDS011;5197;48.152;8.590;2023-10-19T14:50:55;3.57;;;3.03;;
10303;SDS011;5197;48.152;8.590;2023-10-19T14:53:24;4.33;;;2.67;;
10303;SDS011;5197;48.152;8.590;2023-10-19T14:55:51;2.77;;;2.50;;
10303;SDS011;5197;48.152;8.590;2023-10-19T14:58:19;3.03;;;2.50;;
10303;SDS011;5197;48.152;8.590;2023-10-19T15:00:47;3.13;;;2.50;;
10303;SDS011;5197;48.152;8.590;2023-10-19T15:03:21;2.40;;;2.30;;
10303;SDS011;5197;48.152;8.590;2023-10-19T15:05:50;3.13;;;2.20;;
10303;SDS011;5197;48.152;8.590;2023-10-19T15:08:18;3.73;;;2.07;;
10303;SDS011;5197;48.152;8.590;2023-10-19T15:10:46;2.33;;;2.13;;
10303;SDS011;5197;48.152;8.590;2023-10-19T15:13:13;2.13;;;1.90;;